Time;durP1;ratioP1;P1;durP2;ratioP2;P2;SDS_P1;SDS_P2;PMS_P1;PMS_P2;Temp;Humidity;BMP_temperature;BMP_pressure;BME280_temperature;BME280_humidity;BME280_pressure;Samples;Min_cycle;Max_cycle;Signal;HPM_P1;HPM_P2
2021/05/05 00:00:17;;;;;;;13.90;2.65;;;;;;;;;;5058238;28;20116;-67
2021/05/05 00:02:44;;;;;;;4.22;2.53;;;;;;;;;;5059224;28;20059;-72
2021/05/05 00:05:12;;;;;;;4.60;2.50;;;;;;;;;;5056757;28;20016;-71
2021/05/05 00:07:39;;;;;;;4.15;2.20;;;;;;;;;;5047914;28;20411;-67
2021/05/05 00:10:06;;;;;;;5.57;2.20;;;;;;;;;;5054218;28;20108;-69
2021/05/05 00:12:35;;;;;;;5.70;2.30;;;;;;;;;;5055976;28;20024;-67
2021/05/05 00:15:01;;;;;;;4.10;2.20;;;;;;;;;;5048266;28;20527;-70
2021/05/05 00:17:28;;;;;;;3.58;2.10;;;;;;;;;;5040255;28;20075;-67
2021/05/05 00:19:55;;;;;;;3.33;2.28;;;;;;;;;;5057519;28;20020;-67
2021/05/05 00:22:22;;;;;;;4.53;2.28;;;;;;;;;;5055966;28;20470;-66
2021/05/05 00:24:48;;;;;;;5.13;2.53;;;;;;;;;;5053024;28;20115;-71
2021/05/05 00:27:15;;;;;;;3.47;2.05;;;;;;;;;;5048615;28;20036;-69
2021/05/05 00:29:42;;;;;;;6.65;2.60;;;;;;;;;;5049889;28;20030;-70
2021/05/05 00:32:09;;;;;;;6.15;2.60;;;;;;;;;;5057550;28;20811;-68
2021/05/05 00:34:35;;;;;;;5.85;1.98;;;;;;;;;;5047940;28;20033;-71
2021/05/05 00:37:02;;;;;;;2.45;1.80;;;;;;;;;;5050965;28;20407;-71
2021/05/05 00:39:29;;;;;;;3.45;1.90;;;;;;;;;;5040283;28;20025;-68
2021/05/05 00:41:55;;;;;;;11.25;3.33;;;;;;;;;;5040788;28;20033;-69
2021/05/05 00:44:23;;;;;;;7.47;3.00;;;;;;;;;;5038433;28;20471;-67
2021/05/05 00:46:50;;;;;;;4.45;2.20;;;;;;;;;;5044141;28;20394;-70
2021/05/05 00:49:17;;;;;;;5.32;2.28;;;;;;;;;;5062094;28;20410;-68
2021/05/05 00:51:44;;;;;;;12.40;2.85;;;;;;;;;;5053978;28;20120;-67
2021/05/05 00:54:11;;;;;;;4.78;2.22;;;;;;;;;;5043336;28;20521;-68
2021/05/05 00:56:38;;;;;;;9.68;2.45;;;;;;;;;;5058252;28;20609;-69
2021/05/05 00:59:04;;;;;;;5.70;2.40;;;;;;;;;;5060161;28;20108;-68
2021/05/05 01:01:31;;;;;;;6.93;2.13;;;;;;;;;;5060077;28;20021;-70
2021/05/05 01:03:58;;;;;;;5.10;2.25;;;;;;;;;;5057988;28;20414;-68
2021/05/05 01:06:25;;;;;;;6.10;2.30;;;;;;;;;;5047852;28;20028;-68
2021/05/05 01:08:51;;;;;;;6.00;2.15;;;;;;;;;;5046891;28;20033;-68
2021/05/05 01:11:18;;;;;;;6.03;2.05;;;;;;;;;;5046407;28;20029;-68
2021/05/05 01:13:45;;;;;;;4.88;2.00;;;;;;;;;;5044438;28;20504;-71
2021/05/05 01:16:15;;;;;;;4.95;1.85;;;;;;;;;;5046430;28;20036;-71
2021/05/05 01:18:42;;;;;;;5.07;1.57;;;;;;;;;;5047217;28;20025;-68
2021/05/05 01:21:09;;;;;;;8.95;2.10;;;;;;;;;;5047715;28;20158;-68
2021/05/05 02:06:44;;;;;;;5.78;1.83;;;;;;;;;;5078732;27;20393;-65
2021/05/05 02:09:11;;;;;;;6.82;1.85;;;;;;;;;;5047635;28;20057;-65
2021/05/05 02:11:38;;;;;;;5.80;2.10;;;;;;;;;;5029291;28;86175;-65
2021/05/05 02:14:05;;;;;;;5.38;2.15;;;;;;;;;;5035565;28;20029;-64
2021/05/05 02:16:32;;;;;;;5.82;1.83;;;;;;;;;;5035180;28;20040;-64
2021/05/05 02:18:58;;;;;;;5.43;1.85;;;;;;;;;;5022985;28;20478;-63
2021/05/05 02:21:25;;;;;;;6.90;1.92;;;;;;;;;;5028166;28;20030;-63
2021/05/05 02:23:52;;;;;;;10.18;1.90;;;;;;;;;;5029001;28;20117;-65
2021/05/05 02:26:19;;;;;;;7.32;2.10;;;;;;;;;;5032136;28;20029;-64
2021/05/05 02:28:45;;;;;;;5.68;1.67;;;;;;;;;;5028972;28;20033;-64
2021/05/05 02:31:12;;;;;;;7.65;2.00;;;;;;;;;;5030607;28;20104;-66
2021/05/05 02:33:39;;;;;;;9.48;1.85;;;;;;;;;;5031003;28;20501;-64
2021/05/05 02:36:06;;;;;;;8.43;2.00;;;;;;;;;;5022075;28;20089;-65
2021/05/05 02:38:32;;;;;;;4.90;1.73;;;;;;;;;;5030493;28;20038;-64
2021/05/05 02:40:59;;;;;;;4.80;1.80;;;;;;;;;;5034392;28;20436;-64
2021/05/05 02:43:26;;;;;;;5.28;2.15;;;;;;;;;;5035436;28;20026;-63
2021/05/05 02:45:52;;;;;;;14.55;2.05;;;;;;;;;;5036210;28;20036;-66
2021/05/05 02:48:19;;;;;;;7.38;2.05;;;;;;;;;;5039280;28;20035;-64
2021/05/05 02:50:46;;;;;;;5.38;1.70;;;;;;;;;;5039454;28;20018;-65
2021/05/05 02:53:13;;;;;;;5.70;2.13;;;;;;;;;;5029492;28;20037;-65
2021/05/05 02:55:39;;;;;;;6.07;2.13;;;;;;;;;;5039460;28;20193;-64
2021/05/05 02:58:06;;;;;;;9.52;1.90;;;;;;;;;;5039834;28;20033;-66
2021/05/05 03:00:33;;;;;;;9.10;2.20;;;;;;;;;;5047028;28;20033;-66
2021/05/05 03:03:00;;;;;;;10.20;2.13;;;;;;;;;;5046859;28;20025;-65
2021/05/05 03:05:26;;;;;;;4.50;1.60;;;;;;;;;;5045331;28;20515;-66
2021/05/05 03:07:53;;;;;;;6.25;1.77;;;;;;;;;;5046788;28;20026;-65
2021/05/05 03:10:20;;;;;;;7.32;1.50;;;;;;;;;;5046774;28;20100;-65
2021/05/05 03:12:47;;;;;;;11.23;2.00;;;;;;;;;;5046792;28;20013;-66
2021/05/05 03:15:13;;;;;;;6.05;1.95;;;;;;;;;;5046285;28;20025;-65
2021/05/05 03:17:41;;;;;;;8.15;1.83;;;;;;;;;;5033095;28;20475;-65
2021/05/05 03:20:09;;;;;;;7.43;1.70;;;;;;;;;;5018362;28;20029;-65
2021/05/05 03:22:36;;;;;;;6.50;1.50;;;;;;;;;;5015740;28;20433;-65
2021/05/05 03:25:04;;;;;;;6.15;1.98;;;;;;;;;;5022866;28;20067;-65
2021/05/05 03:27:31;;;;;;;8.05;1.98;;;;;;;;;;5030857;28;20104;-65
2021/05/05 03:29:57;;;;;;;9.23;2.65;;;;;;;;;;5013752;28;20065;-65
2021/05/05 03:32:24;;;;;;;7.90;2.13;;;;;;;;;;5029506;28;20048;-65
2021/05/05 03:34:51;;;;;;;5.88;1.58;;;;;;;;;;5033341;28;20086;-66
2021/05/05 03:37:18;;;;;;;5.03;1.58;;;;;;;;;;5033818;28;20131;-65
2021/05/05 03:39:44;;;;;;;5.78;1.58;;;;;;;;;;5033444;28;20057;-66
2021/05/05 03:42:11;;;;;;;3.88;1.50;;;;;;;;;;5022017;28;20033;-65
2021/05/05 03:44:38;;;;;;;5.95;1.63;;;;;;;;;;5013381;28;20052;-66
2021/05/05 03:47:05;;;;;;;5.82;2.05;;;;;;;;;;5013398;28;20021;-65
2021/05/05 03:49:31;;;;;;;6.40;1.65;;;;;;;;;;5013283;28;20522;-66
2021/05/05 03:51:58;;;;;;;6.03;1.80;;;;;;;;;;5013507;28;20391;-66
2021/05/05 03:54:25;;;;;;;12.05;2.22;;;;;;;;;;5013386;28;20476;-65
2021/05/05 03:56:52;;;;;;;4.75;1.88;;;;;;;;;;5013308;28;20029;-65
2021/05/05 03:59:19;;;;;;;5.90;1.90;;;;;;;;;;5013082;28;20076;-66
2021/05/05 04:01:45;;;;;;;4.15;1.45;;;;;;;;;;5013434;28;20033;-65
2021/05/05 04:04:12;;;;;;;4.38;1.92;;;;;;;;;;5013016;28;20030;-65
2021/05/05 04:06:39;;;;;;;5.75;1.80;;;;;;;;;;5013120;28;20088;-65
2021/05/05 04:09:06;;;;;;;4.88;1.63;;;;;;;;;;5012962;28;20032;-65
2021/05/05 04:11:33;;;;;;;5.55;1.38;;;;;;;;;;5012970;28;20034;-66
2021/05/05 04:13:59;;;;;;;3.75;1.65;;;;;;;;;;5013237;28;20037;-65
2021/05/05 04:16:26;;;;;;;5.65;1.45;;;;;;;;;;5012885;28;20077;-65
2021/05/05 04:18:53;;;;;;;6.07;1.80;;;;;;;;;;5012646;28;20057;-65
2021/05/05 04:21:21;;;;;;;6.40;1.85;;;;;;;;;;5012984;28;20030;-65
2021/05/05 04:23:48;;;;;;;5.25;1.70;;;;;;;;;;5012788;28;20041;-65
2021/05/05 04:26:15;;;;;;;5.22;1.40;;;;;;;;;;5012607;28;20038;-65
2021/05/05 04:28:42;;;;;;;6.35;1.60;;;;;;;;;;5026777;28;20494;-65
2021/05/05 04:31:09;;;;;;;5.35;1.50;;;;;;;;;;5021147;28;20025;-65
2021/05/05 04:33:36;;;;;;;5.38;1.55;;;;;;;;;;5032138;28;20029;-66
2021/05/05 04:36:03;;;;;;;4.60;1.45;;;;;;;;;;5032287;28;20471;-65
2021/05/05 04:38:30;;;;;;;5.55;1.50;;;;;;;;;;5032350;28;20531;-65
2021/05/05 04:40:57;;;;;;;11.43;2.08;;;;;;;;;;5032246;28;20148;-66
2021/05/05 04:43:23;;;;;;;7.07;1.90;;;;;;;;;;5032110;28;20052;-65
2021/05/05 04:45:50;;;;;;;5.45;1.65;;;;;;;;;;5031942;28;20060;-65
2021/05/05 04:48:17;;;;;;;6.47;1.58;;;;;;;;;;5030678;28;20048;-65
2021/05/05 04:50:44;;;;;;;6.90;1.50;;;;;;;;;;5032108;28;20022;-65
2021/05/05 04:53:11;;;;;;;7.47;1.95;;;;;;;;;;5032200;28;20117;-66
2021/05/05 04:55:37;;;;;;;7.50;2.17;;;;;;;;;;5031897;28;20026;-65
2021/05/05 04:58:04;;;;;;;6.90;1.83;;;;;;;;;;5031949;28;20104;-66
2021/05/05 05:00:31;;;;;;;5.57;1.70;;;;;;;;;;5031847;28;20022;-65
2021/05/05 05:02:58;;;;;;;6.53;1.65;;;;;;;;;;5031744;28;20029;-65
2021/05/05 05:05:24;;;;;;;7.13;1.85;;;;;;;;;;5031766;28;20508;-66
2021/05/05 05:07:54;;;;;;;8.20;1.80;;;;;;;;;;5032080;28;20025;-65
2021/05/05 05:10:20;;;;;;;7.75;1.88;;;;;;;;;;5031730;28;20026;-65
2021/05/05 05:12:47;;;;;;;5.00;1.73;;;;;;;;;;5031623;28;20029;-65
2021/05/05 05:15:14;;;;;;;5.47;1.48;;;;;;;;;;5031474;28;20403;-65
2021/05/05 05:17:41;;;;;;;10.57;2.10;;;;;;;;;;5031285;28;20030;-65
2021/05/05 05:20:17;;;;;;;8.50;2.10;;;;;;;;;;5031337;28;20071;-66
2021/05/05 05:22:44;;;;;;;7.25;1.77;;;;;;;;;;5031110;28;20026;-66
2021/05/05 05:25:14;;;;;;;7.07;2.08;;;;;;;;;;5031274;28;20060;-66
2021/05/05 05:28:01;;;;;;;9.63;2.10;;;;;;;;;;5031078;28;20142;-66
2021/05/05 05:33:27;;;;;;;8.13;1.83;;;;;;;;;;5008819;28;20060;-66
2021/05/05 05:35:56;;;;;;;5.97;1.98;;;;;;;;;;5029597;28;20044;-66
2021/05/05 05:38:32;;;;;;;6.13;1.55;;;;;;;;;;5031007;28;20082;-66
2021/05/05 05:44:01;;;;;;;8.20;2.08;;;;;;;;;;5027501;28;20034;-66
2021/05/05 05:46:31;;;;;;;7.93;1.95;;;;;;;;;;5030416;28;20132;-66
2021/05/05 05:48:58;;;;;;;8.85;2.35;;;;;;;;;;5030727;28;20029;-66
2021/05/05 05:54:13;;;;;;;7.35;1.55;;;;;;;;;;5030659;28;20029;-67
2021/05/05 05:56:43;;;;;;;7.28;1.85;;;;;;;;;;5030854;28;20032;-66
2021/05/05 06:02:11;;;;;;;8.20;1.95;;;;;;;;;;5022212;28;20037;-66
2021/05/05 06:08:12;;;;;;;10.50;2.03;;;;;;;;;;5030170;28;20152;-67
2021/05/05 06:10:39;;;;;;;7.00;1.73;;;;;;;;;;5030320;28;20464;-66
2021/05/05 06:13:06;;;;;;;12.40;2.60;;;;;;;;;;5031058;28;20033;-65
2021/05/05 06:16:05;;;;;;;5.65;1.55;;;;;;;;;;5030737;28;20091;-66
2021/05/05 06:18:32;;;;;;;8.38;1.70;;;;;;;;;;5030583;28;20018;-65
2021/05/05 06:21:19;;;;;;;6.30;1.58;;;;;;;;;;5030556;28;20116;-65
2021/05/05 06:23:45;;;;;;;13.07;2.30;;;;;;;;;;5030129;28;20460;-65
2021/05/05 06:26:12;;;;;;;7.68;1.83;;;;;;;;;;5030443;28;20496;-65
2021/05/05 06:28:39;;;;;;;6.35;1.70;;;;;;;;;;5028494;28;20116;-65
2021/05/05 06:31:06;;;;;;;5.05;1.48;;;;;;;;;;5030486;28;20140;-65
2021/05/05 06:33:32;;;;;;;10.68;2.17;;;;;;;;;;5030251;28;20092;-66
2021/05/05 06:35:59;;;;;;;6.75;1.92;;;;;;;;;;5030518;28;20030;-66
2021/05/05 06:38:26;;;;;;;8.77;1.77;;;;;;;;;;5030534;28;20030;-66
2021/05/05 06:40:53;;;;;;;8.80;2.20;;;;;;;;;;5030529;28;20025;-65
2021/05/05 06:43:20;;;;;;;7.85;1.85;;;;;;;;;;5030392;28;20123;-66
2021/05/05 06:45:47;;;;;;;7.60;1.77;;;;;;;;;;5030229;28;20033;-66
2021/05/05 06:48:13;;;;;;;9.98;2.22;;;;;;;;;;5030216;28;20026;-66
2021/05/05 06:50:40;;;;;;;8.60;2.45;;;;;;;;;;5030522;28;20049;-66
2021/05/05 06:53:07;;;;;;;8.73;2.47;;;;;;;;;;5032089;28;20025;-66
2021/05/05 06:55:34;;;;;;;7.45;1.90;;;;;;;;;;5034091;28;20022;-67
2021/05/05 06:58:00;;;;;;;7.85;1.80;;;;;;;;;;5033908;28;20036;-66
2021/05/05 07:00:27;;;;;;;5.78;1.90;;;;;;;;;;5034286;28;20029;-66
2021/05/05 07:02:54;;;;;;;5.18;1.83;;;;;;;;;;5033894;28;20036;-66
2021/05/05 07:05:21;;;;;;;9.07;1.85;;;;;;;;;;5033411;28;20084;-66
2021/05/05 07:07:48;;;;;;;7.13;2.03;;;;;;;;;;5033689;28;20033;-66
2021/05/05 07:10:15;;;;;;;7.60;1.80;;;;;;;;;;5033742;28;20076;-66
2021/05/05 07:12:42;;;;;;;6.07;1.70;;;;;;;;;;5033777;28;20048;-66
2021/05/05 07:15:09;;;;;;;6.40;2.00;;;;;;;;;;5033816;28;20033;-67
2021/05/05 07:17:36;;;;;;;7.05;1.80;;;;;;;;;;5033513;28;20514;-66
2021/05/05 07:20:02;;;;;;;7.32;1.98;;;;;;;;;;5033480;28;20058;-66
2021/05/05 07:22:29;;;;;;;5.05;1.50;;;;;;;;;;5033637;28;20032;-66
2021/05/05 07:24:56;;;;;;;9.30;2.10;;;;;;;;;;5033528;28;20083;-67
2021/05/05 07:27:23;;;;;;;8.25;2.10;;;;;;;;;;5033449;28;20052;-67
2021/05/05 07:29:50;;;;;;;7.90;1.83;;;;;;;;;;5033335;28;20022;-66
2021/05/05 07:32:17;;;;;;;8.40;1.88;;;;;;;;;;5033129;28;20029;-67
2021/05/05 07:34:43;;;;;;;5.00;1.77;;;;;;;;;;5033213;28;20067;-66
2021/05/05 07:37:16;;;;;;;8.98;2.15;;;;;;;;;;5033361;28;20021;-66
2021/05/05 07:47:43;;;;;;;4.53;1.85;;;;;;;;;;5033041;28;20045;-66
2021/05/05 07:50:12;;;;;;;5.72;1.80;;;;;;;;;;5032943;28;20025;-67
2021/05/05 07:52:40;;;;;;;8.50;2.08;;;;;;;;;;5033072;28;20075;-66
2021/05/05 07:55:08;;;;;;;7.05;1.88;;;;;;;;;;5032835;28;20137;-65
2021/05/05 07:57:35;;;;;;;9.70;2.05;;;;;;;;;;5032604;28;20032;-66
2021/05/05 08:00:02;;;;;;;5.93;1.65;;;;;;;;;;5033053;28;20021;-66
2021/05/05 08:02:29;;;;;;;7.65;2.15;;;;;;;;;;5032886;28;20467;-66
2021/05/05 08:04:55;;;;;;;7.50;1.90;;;;;;;;;;5032348;28;20045;-66
2021/05/05 08:07:23;;;;;;;6.30;1.90;;;;;;;;;;5032720;28;20025;-67
2021/05/05 08:09:50;;;;;;;5.85;2.05;;;;;;;;;;5032584;28;20100;-67
2021/05/05 08:12:17;;;;;;;5.95;1.48;;;;;;;;;;5032613;28;20026;-66
2021/05/05 08:14:46;;;;;;;4.38;1.60;;;;;;;;;;5032514;28;20060;-66
2021/05/05 08:17:13;;;;;;;6.03;1.92;;;;;;;;;;5032656;28;20036;-66
2021/05/05 08:19:40;;;;;;;8.73;1.95;;;;;;;;;;5032472;28;20496;-67
2021/05/05 08:22:07;;;;;;;6.10;1.90;;;;;;;;;;5032358;28;20026;-66
2021/05/05 08:24:33;;;;;;;8.02;2.10;;;;;;;;;;5031970;28;20033;-66
2021/05/05 08:27:00;;;;;;;9.10;1.88;;;;;;;;;;5032199;28;20391;-67
2021/05/05 08:29:28;;;;;;;6.63;1.92;;;;;;;;;;5032079;28;20044;-66
2021/05/05 08:31:56;;;;;;;6.35;1.95;;;;;;;;;;5032357;28;20026;-66
2021/05/05 08:34:25;;;;;;;7.43;1.55;;;;;;;;;;5030980;28;20064;-66
2021/05/05 08:36:52;;;;;;;5.25;1.55;;;;;;;;;;5032225;28;20021;-66
2021/05/05 08:39:19;;;;;;;7.63;2.22;;;;;;;;;;5031856;28;20021;-66
2021/05/05 08:41:46;;;;;;;6.28;2.00;;;;;;;;;;5031947;28;20033;-66
2021/05/05 08:44:13;;;;;;;8.38;1.90;;;;;;;;;;5030941;28;20025;-66
2021/05/05 08:46:41;;;;;;;6.53;1.67;;;;;;;;;;5014405;28;20038;-66
2021/05/05 08:49:08;;;;;;;4.38;1.40;;;;;;;;;;5032009;28;20021;-66
2021/05/05 08:51:35;;;;;;;7.20;1.70;;;;;;;;;;5031807;28;20025;-65
2021/05/05 08:54:02;;;;;;;6.40;1.80;;;;;;;;;;5031785;28;20426;-66
2021/05/05 08:56:38;;;;;;;5.10;1.40;;;;;;;;;;5031459;28;20037;-66
2021/05/05 08:59:12;;;;;;;5.25;1.75;;;;;;;;;;5031833;28;20550;-66
2021/05/05 09:01:39;;;;;;;6.90;1.88;;;;;;;;;;5031656;28;20108;-65
2021/05/05 09:04:07;;;;;;;7.35;1.73;;;;;;;;;;5031480;28;20052;-65
2021/05/05 09:06:49;;;;;;;14.57;1.98;;;;;;;;;;5031332;28;20057;-66
2021/05/05 09:09:34;;;;;;;4.75;1.52;;;;;;;;;;5031462;28;20116;-65
2021/05/05 09:12:11;;;;;;;4.15;1.35;;;;;;;;;;5031536;28;20594;-65
2021/05/05 09:14:49;;;;;;;4.82;1.50;;;;;;;;;;5030763;28;20025;-65
2021/05/05 09:17:19;;;;;;;11.05;1.73;;;;;;;;;;5029974;28;20436;-66
2021/05/05 09:19:46;;;;;;;6.63;1.95;;;;;;;;;;5031274;28;20427;-65
2021/05/05 09:22:13;;;;;;;6.63;1.88;;;;;;;;;;5031251;28;20051;-66
2021/05/05 09:24:39;;;;;;;6.68;1.60;;;;;;;;;;5031031;28;20388;-65
2021/05/05 09:27:08;;;;;;;14.57;2.45;;;;;;;;;;5031137;28;20033;-65
2021/05/05 09:29:39;;;;;;;14.82;1.67;;;;;;;;;;5031214;28;20025;-65
2021/05/05 09:32:06;;;;;;;7.53;1.60;;;;;;;;;;5031333;28;20048;-66
2021/05/05 09:34:32;;;;;;;17.52;2.50;;;;;;;;;;5031020;28;20029;-64
2021/05/05 09:37:01;;;;;;;10.93;1.80;;;;;;;;;;5031398;28;20025;-64
2021/05/05 09:39:33;;;;;;;8.85;1.80;;;;;;;;;;5031244;28;20030;-65
2021/05/05 09:42:00;;;;;;;7.43;1.85;;;;;;;;;;5030855;28;20025;-66
2021/05/05 09:44:28;;;;;;;11.88;1.88;;;;;;;;;;5031113;28;20734;-65
2021/05/05 09:46:58;;;;;;;5.47;1.77;;;;;;;;;;5030842;28;20076;-65
2021/05/05 09:49:33;;;;;;;6.45;1.60;;;;;;;;;;5029483;28;20049;-64
2021/05/05 09:52:12;;;;;;;7.45;2.03;;;;;;;;;;5030884;28;20033;-64
2021/05/05 09:54:40;;;;;;;7.68;2.10;;;;;;;;;;5030901;28;20033;-65
2021/05/05 09:57:17;;;;;;;7.40;1.90;;;;;;;;;;5030824;28;20383;-65
2021/05/05 09:59:57;;;;;;;6.28;1.70;;;;;;;;;;5030347;28;20074;-65
2021/05/05 10:02:25;;;;;;;11.38;2.10;;;;;;;;;;5030572;28;20495;-65
2021/05/05 10:05:05;;;;;;;10.18;1.90;;;;;;;;;;5030454;28;20467;-65
2021/05/05 10:08:09;;;;;;;9.38;2.60;;;;;;;;;;5030300;28;20120;-65
2021/05/05 10:10:39;;;;;;;36.03;3.22;;;;;;;;;;4988833;28;20033;-64
2021/05/05 10:13:08;;;;;;;10.18;3.47;;;;;;;;;;5023876;28;20048;-64
2021/05/05 10:15:37;;;;;;;20.67;4.30;;;;;;;;;;5030861;28;20033;-64
2021/05/05 10:18:07;;;;;;;10.73;3.28;;;;;;;;;;5030682;28;20029;-64
2021/05/05 10:20:33;;;;;;;9.18;2.90;;;;;;;;;;5030149;28;20021;-65
2021/05/05 10:23:01;;;;;;;15.52;3.17;;;;;;;;;;5028966;28;20025;-65
2021/05/05 10:25:28;;;;;;;11.32;3.22;;;;;;;;;;5030426;28;20021;-62
2021/05/05 11:13:40;;;;;;;19.83;5.15;;;;;;;;;;5059106;27;20430;-65
2021/05/05 11:16:07;;;;;;;18.60;5.05;;;;;;;;;;5062626;28;20028;-65
2021/05/05 11:18:35;;;;;;;16.63;4.95;;;;;;;;;;5062349;28;20033;-67
2021/05/05 11:21:05;;;;;;;26.33;10.65;;;;;;;;;;5062962;28;20028;-66
2021/05/05 11:23:45;;;;;;;21.25;5.82;;;;;;;;;;5060631;28;20086;-67
2021/05/05 11:26:14;;;;;;;18.98;3.80;;;;;;;;;;5060812;28;20438;-65
2021/05/05 11:28:51;;;;;;;20.80;5.03;;;;;;;;;;5060349;28;20043;-65
2021/05/05 11:31:17;;;;;;;14.63;4.18;;;;;;;;;;5062436;28;20039;-65
2021/05/05 11:34:03;;;;;;;19.15;5.40;;;;;;;;;;5060182;28;20078;-65
2021/05/05 11:36:30;;;;;;;21.50;5.63;;;;;;;;;;5053840;28;20533;-65
2021/05/05 11:38:57;;;;;;;17.85;4.43;;;;;;;;;;5062374;28;20402;-64
2021/05/05 11:41:25;;;;;;;20.70;5.03;;;;;;;;;;5059858;28;20039;-65
2021/05/05 11:43:52;;;;;;;15.20;4.35;;;;;;;;;;5058156;28;20570;-65
2021/05/05 11:46:21;;;;;;;20.88;5.93;;;;;;;;;;5058482;28;20033;-65
2021/05/05 11:48:48;;;;;;;19.65;5.15;;;;;;;;;;5047275;28;20938;-65
2021/05/05 11:51:19;;;;;;;19.80;4.97;;;;;;;;;;5060867;28;20035;-67
2021/05/05 11:53:46;;;;;;;21.02;5.35;;;;;;;;;;5059417;28;20180;-67
2021/05/05 11:56:17;;;;;;;14.32;3.85;;;;;;;;;;5056861;28;20060;-65
2021/05/05 11:58:52;;;;;;;17.27;3.90;;;;;;;;;;5056167;28;20032;-65
2021/05/05 12:01:32;;;;;;;11.63;2.92;;;;;;;;;;5056198;28;20033;-65
2021/05/05 12:04:19;;;;;;;16.00;3.33;;;;;;;;;;5054768;28;20028;-65
2021/05/05 12:06:55;;;;;;;16.48;3.75;;;;;;;;;;5056527;28;20105;-66
2021/05/05 12:09:23;;;;;;;18.27;4.63;;;;;;;;;;5061765;28;20574;-68
2021/05/05 12:11:50;;;;;;;20.23;3.92;;;;;;;;;;5059414;28;20157;-67
2021/05/05 12:14:30;;;;;;;15.30;3.80;;;;;;;;;;5057521;28;20033;-68
2021/05/05 12:16:57;;;;;;;14.50;4.13;;;;;;;;;;5058105;28;20063;-68
2021/05/05 12:19:25;;;;;;;20.45;4.10;;;;;;;;;;5059097;28;20028;-68
2021/05/05 12:21:52;;;;;;;17.63;4.43;;;;;;;;;;5052993;28;20086;-68
2021/05/05 12:24:18;;;;;;;23.17;4.88;;;;;;;;;;5049330;28;20028;-68
2021/05/05 12:26:45;;;;;;;14.85;4.75;;;;;;;;;;5051250;28;20032;-70
2021/05/05 12:29:15;;;;;;;21.55;5.25;;;;;;;;;;5050656;28;20053;-70
2021/05/05 12:31:44;;;;;;;24.58;5.35;;;;;;;;;;5050904;28;20099;-74
2021/05/05 12:34:11;;;;;;;23.80;5.65;;;;;;;;;;5049859;28;20025;-70
2021/05/05 12:36:42;;;;;;;28.48;6.20;;;;;;;;;;5048564;28;20376;-70
2021/05/05 12:39:19;;;;;;;22.23;5.38;;;;;;;;;;5048677;28;20031;-71
2021/05/05 12:41:47;;;;;;;17.92;6.07;;;;;;;;;;5047673;28;20495;-66
2021/05/05 12:44:15;;;;;;;24.00;5.97;;;;;;;;;;5046198;28;20037;-68
2021/05/05 12:49:41;;;;;;;28.05;7.45;;;;;;;;;;5035895;28;20071;-69
2021/05/05 12:52:28;;;;;;;20.67;5.85;;;;;;;;;;5027046;28;20036;-68
2021/05/05 12:54:57;;;;;;;29.73;6.95;;;;;;;;;;5027793;28;20053;-68
2021/05/05 12:57:27;;;;;;;24.25;8.63;;;;;;;;;;5026716;28;20104;-67
2021/05/05 12:59:55;;;;;;;29.02;8.57;;;;;;;;;;5027041;28;20026;-71
2021/05/05 13:02:27;;;;;;;30.25;9.30;;;;;;;;;;5026269;28;20060;-68
2021/05/05 13:05:05;;;;;;;27.70;11.82;;;;;;;;;;5025199;28;20415;-67
2021/05/05 13:07:41;;;;;;;24.88;10.82;;;;;;;;;;5022976;28;20138;-70
2021/05/05 13:10:17;;;;;;;20.50;7.97;;;;;;;;;;5038534;28;20132;-69
2021/05/05 13:12:48;;;;;;;20.10;6.05;;;;;;;;;;5021152;28;20053;-70
2021/05/05 13:15:42;;;;;;;19.30;7.28;;;;;;;;;;5020421;28;20468;-69
2021/05/05 13:20:59;;;;;;;32.08;11.43;;;;;;;;;;5044747;28;20060;-68
2021/05/05 13:31:47;;;;;;;27.02;8.88;;;;;;;;;;5021865;28;20154;-69
2021/05/05 13:34:18;;;;;;;36.58;18.48;;;;;;;;;;5037675;28;20078;-71
2021/05/05 13:36:49;;;;;;;31.70;12.88;;;;;;;;;;5021745;28;20376;-68
2021/05/05 13:39:16;;;;;;;23.80;11.13;;;;;;;;;;5024241;28;20028;-69
2021/05/05 13:41:44;;;;;;;23.95;8.75;;;;;;;;;;5037887;28;20515;-69
2021/05/05 13:44:38;;;;;;;25.92;8.77;;;;;;;;;;5019238;28;20122;-70
2021/05/05 13:47:43;;;;;;;19.73;6.95;;;;;;;;;;5020645;28;22230;-69
2021/05/05 13:50:12;;;;;;;19.58;5.28;;;;;;;;;;5019187;28;20750;-70
2021/05/05 13:52:39;;;;;;;25.88;7.70;;;;;;;;;;5020683;28;20140;-69
2021/05/05 13:55:07;;;;;;;14.43;5.30;;;;;;;;;;5019536;28;20103;-69
2021/05/05 13:57:34;;;;;;;17.95;5.28;;;;;;;;;;5019179;28;20079;-71
2021/05/05 14:00:14;;;;;;;21.30;5.55;;;;;;;;;;5018734;28;20106;-69
2021/05/05 14:02:41;;;;;;;15.95;4.30;;;;;;;;;;5019134;28;22337;-71
2021/05/05 14:05:14;;;;;;;16.60;4.95;;;;;;;;;;5019184;28;20029;-69
2021/05/05 14:07:41;;;;;;;15.50;5.25;;;;;;;;;;5018831;28;20033;-69
2021/05/05 14:10:15;;;;;;;16.98;4.80;;;;;;;;;;5016910;28;20032;-68
2021/05/05 14:12:50;;;;;;;28.55;14.95;;;;;;;;;;5018259;28;20111;-70
2021/05/05 14:15:17;;;;;;;19.15;6.18;;;;;;;;;;5019288;28;20048;-70
2021/05/05 14:17:48;;;;;;;14.45;3.95;;;;;;;;;;5018923;28;20041;-69
2021/05/05 14:20:15;;;;;;;23.20;4.35;;;;;;;;;;5018659;28;20082;-69
2021/05/05 14:22:42;;;;;;;19.20;5.50;;;;;;;;;;5020217;28;20044;-70
2021/05/05 14:25:09;;;;;;;17.50;3.30;;;;;;;;;;5021049;28;20037;-69
2021/05/05 14:27:37;;;;;;;12.45;2.78;;;;;;;;;;5020968;28;22415;-69
2021/05/05 14:30:26;;;;;;;16.42;3.13;;;;;;;;;;5021365;28;20038;-70
2021/05/05 14:32:59;;;;;;;10.05;2.72;;;;;;;;;;5023055;28;20147;-70
2021/05/05 14:35:26;;;;;;;12.02;3.42;;;;;;;;;;5042027;28;20611;-69
2021/05/05 14:38:00;;;;;;;13.23;4.57;;;;;;;;;;5044163;28;20037;-70
2021/05/05 14:40:26;;;;;;;11.52;4.18;;;;;;;;;;5044105;28;20037;-70
2021/05/05 14:43:01;;;;;;;14.32;4.03;;;;;;;;;;5043570;28;20466;-70
2021/05/05 14:48:20;;;;;;;15.65;4.25;;;;;;;;;;5043477;28;20823;-69
2021/05/05 14:50:48;;;;;;;19.13;4.82;;;;;;;;;;5043947;28;20482;-68
2021/05/05 14:53:15;;;;;;;19.45;5.40;;;;;;;;;;5043177;28;20060;-69
2021/05/05 14:55:42;;;;;;;20.13;5.40;;;;;;;;;;5043261;28;20107;-70
2021/05/05 14:58:15;;;;;;;15.18;5.07;;;;;;;;;;5043479;28;21097;-70
2021/05/05 15:00:42;;;;;;;20.00;4.43;;;;;;;;;;5038319;28;21215;-69
2021/05/05 15:03:09;;;;;;;22.05;5.50;;;;;;;;;;5040707;28;20037;-69
2021/05/05 15:05:36;;;;;;;18.65;4.20;;;;;;;;;;5042700;28;20064;-70
2021/05/05 15:08:11;;;;;;;17.70;4.13;;;;;;;;;;5043227;28;20021;-69
2021/05/05 15:13:41;;;;;;;19.65;4.78;;;;;;;;;;5043796;28;20049;-71
2021/05/05 15:38:15;;;;;;;13.02;3.83;;;;;;;;;;5044050;28;20040;-70
2021/05/05 15:40:56;;;;;;;;;;;;;;;;;;5041349;28;20052;-70
2021/05/05 15:48:26;;;;;;;15.95;3.10;;;;;;;;;;5041102;28;20041;-69
2021/05/05 15:50:53;;;;;;;15.32;3.13;;;;;;;;;;5040278;28;20025;-68
2021/05/05 15:53:24;;;;;;;19.98;3.20;;;;;;;;;;5044260;28;20044;-69
2021/05/05 15:56:05;;;;;;;16.23;3.43;;;;;;;;;;5043305;28;20033;-69
2021/05/05 15:58:34;;;;;;;17.65;3.42;;;;;;;;;;5044890;28;20032;-68
2021/05/05 16:01:08;;;;;;;23.55;4.10;;;;;;;;;;5048041;28;20120;-70
2021/05/05 16:17:21;;;;;;;18.67;3.40;;;;;;;;;;5048388;28;20098;-70
2021/05/05 16:19:56;;;;;;;18.45;3.90;;;;;;;;;;5046940;28;20089;-70
2021/05/05 16:22:34;;;;;;;18.48;3.65;;;;;;;;;;5047458;28;20059;-69
2021/05/05 16:28:12;;;;;;;25.75;3.65;;;;;;;;;;5047728;28;20041;-70
2021/05/05 16:44:24;;;;;;;26.00;5.68;;;;;;;;;;5044655;28;20568;-70
2021/05/05 16:54:54;;;;;;;22.05;5.10;;;;;;;;;;5046161;28;20549;-71
2021/05/05 16:57:34;;;;;;;17.60;4.65;;;;;;;;;;5045367;28;20074;-71
2021/05/05 17:08:26;;;;;;;8.60;2.88;;;;;;;;;;5038911;28;20103;-62
2021/05/05 17:10:53;;;;;;;13.70;2.97;;;;;;;;;;5040159;28;20025;-62
2021/05/05 17:13:20;;;;;;;11.02;2.58;;;;;;;;;;5040529;28;20057;-63
2021/05/05 17:15:53;;;;;;;12.00;2.55;;;;;;;;;;5040504;28;20033;-63
2021/05/05 19:14:00;;;;;;;5.55;2.38;;;;;;;;;;5052745;28;20043;-66
2021/05/05 19:16:59;;;;;;;14.38;3.05;;;;;;;;;;5049886;28;20526;-66
2021/05/05 20:27:22;;;;;;;8.13;3.13;;;;;;;;;;5103222;28;20027;-69
2021/05/05 20:33:05;;;;;;;6.53;1.73;;;;;;;;;;5103051;28;20023;-70
2021/05/05 21:33:47;;;;;;;4.95;2.03;;;;;;;;;;5096889;28;20040;-69
